createdAt,value
2022-12-03T00:00:56.383Z,6.39
2022-12-03T00:03:25.384Z,6.39
2022-12-03T00:05:54.209Z,6.37
2022-12-03T00:08:22.987Z,6.44
2022-12-03T00:10:51.646Z,6.27
2022-12-03T00:13:20.386Z,5.91
2022-12-03T00:15:55.162Z,5.79
2022-12-03T00:18:23.897Z,5.84
2022-12-03T00:20:52.624Z,6.00
2022-12-03T00:23:21.327Z,6.17
2022-12-03T00:25:50.562Z,6.16
2022-12-03T00:28:19.267Z,6.25
2022-12-03T00:30:48.134Z,6.29
2022-12-03T00:33:16.807Z,6.20
2022-12-03T00:35:46.860Z,6.13
2022-12-03T00:38:16.367Z,6.17
2022-12-03T00:40:45.272Z,6.08
2022-12-03T00:43:14.237Z,6.07
2022-12-03T00:45:43.179Z,5.98
2022-12-03T00:48:11.815Z,6.17
2022-12-03T00:50:40.608Z,6.20
2022-12-03T00:53:09.267Z,6.14
2022-12-03T00:55:38.134Z,6.01
2022-12-03T00:58:08.597Z,6.14
2022-12-03T01:00:37.926Z,5.90
2022-12-03T01:03:06.777Z,5.80
2022-12-03T01:05:35.435Z,5.86
2022-12-03T01:08:04.452Z,6.02
2022-12-03T01:10:33.128Z,6.14
2022-12-03T01:13:03.305Z,6.18
2022-12-03T01:15:31.991Z,6.25
2022-12-03T01:18:00.703Z,6.09
2022-12-03T01:20:29.481Z,5.96
2022-12-03T01:22:58.155Z,5.79
2022-12-03T01:25:26.748Z,5.52
2022-12-03T01:27:55.456Z,5.52
2022-12-03T01:30:24.128Z,5.61
2022-12-03T01:32:52.871Z,5.73
2022-12-03T01:35:21.577Z,5.90
2022-12-03T01:37:50.245Z,6.06
2022-12-03T01:40:20.807Z,6.03
2022-12-03T01:42:49.467Z,6.02
2022-12-03T01:45:21.142Z,6.08
2022-12-03T01:47:49.837Z,6.24
2022-12-03T01:50:24.548Z,6.12
2022-12-03T01:52:56.492Z,6.07
2022-12-03T01:55:27.269Z,6.08
2022-12-03T01:57:58.876Z,6.04
2022-12-03T02:00:29.213Z,6.04
2022-12-03T02:03:07.101Z,5.98
2022-12-03T02:05:35.971Z,6.12
2022-12-03T02:08:24.147Z,6.10
2022-12-03T02:10:52.880Z,5.96
2022-12-03T02:13:22.206Z,6.08
2022-12-03T02:15:51.120Z,5.99
2022-12-03T02:18:20.183Z,6.03
2022-12-03T02:20:51.804Z,6.01
2022-12-03T02:23:29.144Z,6.12
2022-12-03T02:25:57.808Z,6.20
2022-12-03T02:28:26.679Z,6.16
2022-12-03T02:30:55.386Z,6.14
2022-12-03T02:33:24.062Z,6.15
2022-12-03T02:35:52.771Z,6.07
2022-12-03T02:38:27.042Z,6.10
2022-12-03T02:40:59.205Z,6.05
2022-12-03T02:43:27.951Z,5.98
2022-12-03T02:45:59.850Z,5.96
2022-12-03T02:48:34.312Z,5.88
2022-12-03T02:51:09.381Z,5.87
2022-12-03T02:53:42.549Z,5.76
2022-12-03T02:56:14.457Z,5.81
2022-12-03T02:58:44.956Z,5.93
2022-12-03T03:01:15.749Z,5.99
2022-12-03T03:03:47.614Z,6.09
2022-12-03T03:06:16.949Z,6.12
2022-12-03T03:08:46.096Z,6.12
2022-12-03T03:11:14.892Z,6.05
2022-12-03T03:13:43.975Z,6.05
2022-12-03T03:16:13.006Z,6.10
2022-12-03T03:18:42.244Z,6.20
2022-12-03T03:21:10.997Z,6.11
2022-12-03T03:23:39.654Z,6.04
2022-12-03T03:26:11.034Z,5.92
2022-12-03T03:28:43.162Z,5.94
2022-12-03T03:31:14.636Z,6.08
2022-12-03T03:33:46.561Z,6.08
2022-12-03T03:36:16.473Z,6.11
2022-12-03T03:38:45.223Z,5.79
2022-12-03T03:41:15.440Z,5.83
2022-12-03T03:43:45.910Z,6.00
2022-12-03T03:46:15.522Z,5.97
2022-12-03T03:48:45.019Z,5.76
2022-12-03T03:51:14.498Z,5.75
2022-12-03T03:53:50.948Z,5.87
2022-12-03T03:56:22.334Z,5.97
2022-12-03T03:58:51.020Z,5.91
2022-12-03T04:01:20.114Z,5.96
2022-12-03T04:03:48.881Z,5.91
2022-12-03T04:06:18.602Z,6.06
2022-12-03T04:08:47.243Z,6.06
2022-12-03T04:11:33.812Z,6.03
2022-12-03T04:14:02.452Z,5.98
2022-12-03T04:16:31.207Z,5.78
2022-12-03T04:19:01.157Z,5.90
2022-12-03T04:21:37.249Z,5.81
2022-12-03T04:24:07.725Z,5.68
2022-12-03T04:26:54.862Z,5.55
2022-12-03T04:29:23.658Z,5.55
2022-12-03T04:32:10.658Z,5.82
2022-12-03T04:34:57.136Z,5.85
2022-12-03T04:37:25.903Z,5.72
2022-12-03T04:39:54.611Z,5.68
2022-12-03T04:42:23.765Z,5.63
2022-12-03T04:44:52.849Z,5.66
2022-12-03T04:47:23.177Z,5.66
2022-12-03T04:49:53.096Z,5.76
2022-12-03T04:52:26.333Z,5.78
2022-12-03T04:54:56.261Z,5.75
2022-12-03T04:57:25.522Z,5.78
2022-12-03T04:59:54.143Z,5.85
2022-12-03T05:02:25.682Z,5.87
2022-12-03T05:04:54.736Z,5.85
2022-12-03T05:07:23.695Z,5.83
2022-12-03T05:09:55.061Z,5.88
2022-12-03T05:12:27.790Z,5.95
2022-12-03T05:14:56.744Z,6.07
2022-12-03T05:17:27.175Z,6.03
2022-12-03T05:20:15.290Z,5.92
2022-12-03T05:22:43.963Z,5.31
2022-12-03T05:25:12.701Z,5.55
2022-12-03T05:27:41.450Z,5.49
2022-12-03T05:30:10.917Z,5.59
2022-12-03T05:32:39.628Z,5.64
2022-12-03T05:35:08.557Z,5.71
2022-12-03T05:37:37.370Z,5.48
2022-12-03T05:40:08.223Z,5.45
2022-12-03T05:42:56.390Z,5.23
2022-12-03T05:45:26.755Z,5.71
2022-12-03T05:47:56.726Z,5.75
2022-12-03T05:50:28.260Z,5.91
2022-12-03T05:52:58.135Z,5.96
2022-12-03T05:55:28.360Z,6.00
2022-12-03T05:57:57.780Z,6.02
2022-12-03T06:00:29.397Z,5.93
2022-12-03T06:02:59.251Z,6.14
2022-12-03T06:05:29.406Z,6.08
2022-12-03T06:07:58.455Z,6.02
2022-12-03T06:10:30.601Z,6.05
2022-12-03T06:12:59.401Z,6.20
2022-12-03T06:15:29.496Z,6.25
2022-12-03T06:17:59.672Z,6.21
2022-12-03T06:20:28.321Z,6.11
2022-12-03T06:22:56.958Z,6.12
2022-12-03T06:25:25.752Z,6.14
2022-12-03T06:27:55.989Z,5.98
2022-12-03T06:30:24.691Z,5.99
2022-12-03T06:32:53.363Z,5.89
2022-12-03T06:35:22.254Z,5.77
2022-12-03T06:37:50.972Z,5.68
2022-12-03T06:40:21.759Z,6.08
2022-12-03T06:42:54.263Z,6.19
2022-12-03T06:45:22.962Z,6.05
2022-12-03T06:47:51.821Z,6.09
2022-12-03T06:50:22.260Z,6.12
2022-12-03T06:52:50.825Z,6.06
2022-12-03T06:55:19.631Z,5.98
2022-12-03T06:57:48.365Z,6.12
2022-12-03T07:00:17.352Z,6.11
2022-12-03T07:02:46.035Z,6.24
2022-12-03T07:05:15.106Z,6.20
2022-12-03T07:07:43.935Z,6.33
2022-12-03T07:10:14.930Z,6.19
2022-12-03T07:12:44.565Z,5.97
2022-12-03T07:15:14.479Z,5.48
2022-12-03T07:21:11.561Z,5.30
2022-12-03T07:23:40.466Z,6.10
2022-12-03T07:26:15.100Z,5.97
2022-12-03T07:28:44.431Z,6.11
2022-12-03T07:31:13.109Z,6.22
2022-12-03T07:33:42.879Z,6.17
2022-12-03T07:36:11.789Z,6.06
2022-12-03T07:38:44.777Z,6.19
2022-12-03T07:41:13.805Z,6.18
2022-12-03T07:43:44.048Z,5.86
2022-12-03T07:46:15.843Z,5.85
2022-12-03T07:49:28.472Z,5.98
2022-12-03T07:51:57.822Z,6.04
2022-12-03T08:00:37.236Z,6.02
2022-12-03T08:03:17.968Z,5.94
2022-12-03T08:05:43.908Z,6.19
2022-12-03T08:08:12.672Z,6.21
2022-12-03T08:10:44.325Z,6.34
2022-12-03T08:13:22.046Z,6.41
2022-12-03T08:15:58.244Z,5.93
2022-12-03T08:24:26.917Z,6.26
2022-12-03T08:27:47.280Z,6.20
2022-12-03T08:30:37.033Z,5.87
2022-12-03T08:33:39.134Z,5.95
2022-12-03T08:36:12.724Z,6.20
2022-12-03T08:39:01.771Z,6.28
2022-12-03T08:41:39.061Z,6.47
2022-12-03T08:44:35.088Z,6.41
2022-12-03T08:47:13.253Z,6.37
2022-12-03T08:49:51.022Z,6.89
2022-12-03T08:52:34.169Z,7.21
2022-12-03T08:55:06.950Z,6.67
2022-12-03T09:07:22.018Z,7.27
2022-12-03T09:09:50.781Z,7.36
2022-12-03T09:12:28.253Z,7.65
2022-12-03T09:14:58.444Z,7.60
2022-12-03T09:17:35.228Z,7.61
2022-12-03T09:20:15.204Z,7.08
2022-12-03T09:22:59.773Z,7.42
2022-12-03T09:25:28.668Z,7.84
2022-12-03T09:28:01.607Z,7.80
2022-12-03T09:30:36.506Z,7.62
2022-12-03T09:46:44.211Z,8.18
2022-12-03T10:52:45.275Z,8.14
2022-12-03T10:58:50.494Z,8.28
2022-12-03T11:11:12.807Z,8.48
2022-12-03T11:18:38.032Z,8.75
2022-12-03T11:19:46.589Z,8.80
2022-12-03T11:22:27.365Z,8.76
2022-12-03T11:25:29.672Z,8.72
2022-12-03T11:28:35.853Z,8.67
2022-12-03T11:31:08.901Z,8.39
2022-12-03T11:33:59.562Z,8.36
2022-12-03T11:39:20.733Z,8.58
2022-12-03T11:42:40.284Z,8.62
2022-12-03T11:50:40.709Z,8.43
2022-12-03T11:59:09.707Z,8.28
2022-12-03T12:01:44.047Z,8.35
2022-12-03T12:04:32.570Z,8.34
2022-12-03T12:17:43.137Z,8.12
2022-12-03T12:20:16.567Z,8.15
2022-12-03T12:22:46.036Z,8.34
2022-12-03T12:25:32.856Z,8.50
2022-12-03T12:28:06.660Z,8.56
2022-12-03T12:30:35.481Z,8.19
2022-12-03T12:33:13.227Z,8.31
2022-12-03T12:35:45.564Z,8.32
2022-12-03T12:38:22.291Z,8.40
2022-12-03T12:40:51.872Z,8.36
2022-12-03T12:50:33.825Z,8.21
2022-12-03T12:53:26.491Z,7.83
2022-12-03T12:56:02.150Z,7.88
2022-12-03T12:58:38.239Z,7.92
2022-12-03T13:01:16.048Z,8.03
2022-12-03T13:03:44.737Z,7.94
2022-12-03T13:06:17.850Z,7.77
2022-12-03T13:08:54.089Z,7.69
2022-12-03T13:11:32.127Z,7.71
2022-12-03T13:14:06.849Z,7.80
2022-12-03T13:16:39.125Z,7.80
2022-12-03T13:19:16.817Z,7.79
2022-12-03T13:21:46.831Z,7.64
2022-12-03T13:25:08.868Z,7.59
2022-12-03T13:36:45.767Z,6.90
2022-12-03T14:36:17.581Z,7.17
2022-12-03T14:58:52.991Z,7.46
2022-12-03T15:55:17.241Z,6.84
2022-12-03T16:08:04.575Z,6.72
2022-12-03T16:17:09.305Z,6.77
2022-12-03T16:19:57.020Z,6.84
2022-12-03T16:25:33.593Z,6.90
2022-12-03T16:28:05.902Z,6.89
2022-12-03T16:30:43.381Z,6.87
2022-12-03T16:33:22.526Z,6.79
2022-12-03T16:35:47.582Z,6.89
2022-12-03T16:38:16.448Z,6.84
2022-12-03T16:40:45.142Z,6.90
2022-12-03T16:43:15.764Z,6.91
2022-12-03T16:45:58.736Z,6.94
2022-12-03T16:48:45.212Z,7.03
2022-12-03T16:51:57.152Z,6.95
2022-12-03T17:52:32.543Z,6.97
2022-12-03T17:58:54.910Z,6.82
2022-12-03T18:04:39.672Z,6.84
2022-12-03T18:08:14.110Z,6.90
2022-12-03T18:10:31.510Z,6.89
2022-12-03T18:27:10.327Z,6.83
2022-12-03T18:59:34.482Z,7.06
2022-12-03T19:03:00.684Z,6.81
2022-12-03T19:37:28.307Z,6.41
2022-12-03T19:49:17.794Z,6.10
2022-12-03T19:49:25.054Z,6.02
2022-12-03T19:52:06.413Z,5.92
2022-12-03T19:58:01.549Z,5.80
2022-12-03T20:04:21.003Z,5.62
2022-12-03T20:20:26.426Z,5.62
2022-12-03T20:23:05.137Z,5.71
2022-12-03T20:25:40.941Z,5.80
2022-12-03T20:28:12.351Z,5.90
2022-12-03T20:31:11.399Z,5.97
2022-12-03T20:34:23.088Z,6.00
2022-12-03T20:43:22.098Z,6.14
2022-12-03T20:46:02.565Z,6.07
2022-12-03T20:48:24.473Z,6.15
2022-12-03T20:57:53.093Z,6.13
2022-12-03T21:00:47.390Z,6.08
2022-12-03T21:03:19.903Z,6.12
2022-12-03T21:06:02.478Z,6.13
2022-12-03T21:08:41.950Z,6.13
2022-12-03T21:11:24.329Z,6.18
2022-12-03T21:13:54.876Z,6.08
2022-12-03T21:19:32.576Z,5.95
2022-12-03T21:22:04.453Z,5.91
2022-12-03T21:24:51.240Z,5.95
2022-12-03T21:27:21.993Z,5.92
2022-12-03T21:29:54.376Z,5.85
2022-12-03T21:32:52.057Z,5.87
2022-12-03T21:39:00.041Z,5.84
2022-12-03T21:45:14.902Z,5.94
2022-12-03T21:48:06.451Z,5.88
2022-12-03T21:57:01.809Z,5.65
2022-12-03T21:59:47.451Z,5.73
2022-12-03T22:16:04.290Z,5.54
2022-12-03T22:28:44.607Z,5.34
2022-12-03T22:35:07.658Z,5.28
2022-12-03T22:40:56.899Z,5.33
2022-12-03T22:57:11.087Z,6.09
2022-12-03T22:59:39.878Z,6.00
2022-12-03T23:02:10.332Z,5.91
2022-12-03T23:04:38.912Z,5.81
2022-12-03T23:07:09.073Z,5.74
2022-12-03T23:09:45.353Z,5.65
2022-12-03T23:12:23.320Z,5.67
2022-12-03T23:14:59.693Z,5.71
2022-12-03T23:17:34.359Z,5.69
2022-12-03T23:20:03.749Z,5.65
2022-12-03T23:22:32.461Z,5.74
2022-12-03T23:25:01.117Z,5.70
2022-12-03T23:27:34.437Z,5.62
2022-12-03T23:30:05.459Z,5.65
2022-12-03T23:32:48.664Z,5.58
2022-12-03T23:35:18.994Z,5.57
2022-12-03T23:37:49.355Z,5.47
2022-12-03T23:40:20.317Z,5.43
2022-12-03T23:42:59.671Z,5.41
2022-12-03T23:45:28.527Z,5.32
2022-12-03T23:48:03.177Z,5.34
2022-12-03T23:50:31.911Z,5.46
2022-12-03T23:53:03.432Z,5.42
2022-12-03T23:55:32.147Z,5.40
2022-12-03T23:58:00.752Z,5.40
